Time;durP1;ratioP1;P1;durP2;ratioP2;P2;SDS_P1;SDS_P2;PMS_P1;PMS_P2;Temp;Humidity;BMP_temperature;BMP_pressure;BME280_temperature;BME280_humidity;BME280_pressure;Samples;Min_cycle;Max_cycle;Signal;HPM_P1;HPM_P2
2021/04/26 00:01:00;;;;;;;7.50;2.47;;;6.80;66.70;;;;;;5113769;28;20179;-85
2021/04/26 00:03:25;;;;;;;9.80;2.33;;;6.70;67.00;;;;;;5106146;28;20257;-85
2021/04/26 00:05:51;;;;;;;6.53;2.47;;;6.70;67.10;;;;;;5105843;28;20179;-85
2021/04/26 00:08:17;;;;;;;4.60;2.60;;;6.70;67.20;;;;;;5105630;28;20571;-85
2021/04/26 00:10:43;;;;;;;4.17;2.30;;;6.70;67.20;;;;;;5103673;28;20176;-86
2021/04/26 00:13:09;;;;;;;5.10;2.70;;;6.60;67.20;;;;;;5101222;28;20196;-86
2021/04/26 00:15:34;;;;;;;13.88;2.70;;;6.60;67.30;;;;;;5100857;28;20429;-86
2021/04/26 00:18:00;;;;;;;5.27;2.50;;;6.60;67.50;;;;;;5098961;28;20172;-85
2021/04/26 00:20:30;;;;;;;5.30;2.63;;;6.60;67.50;;;;;;5100643;28;20457;-86
2021/04/26 00:22:58;;;;;;;3.75;2.38;;;6.50;67.60;;;;;;5098765;28;20685;-86
2021/04/26 00:25:24;;;;;;;4.32;2.55;;;6.50;67.80;;;;;;5099506;28;20172;-86
2021/04/26 00:27:50;;;;;;;4.38;2.50;;;6.60;67.70;;;;;;5104197;28;20172;-86
2021/04/26 00:30:18;;;;;;;7.27;3.10;;;6.50;67.70;;;;;;5111888;28;20607;-86
2021/04/26 00:32:45;;;;;;;8.93;2.63;;;6.40;67.70;;;;;;5099233;28;20450;-86
2021/04/26 00:35:12;;;;;;;6.90;2.70;;;6.40;67.90;;;;;;5099860;28;20574;-86
2021/04/26 00:37:38;;;;;;;8.35;3.60;;;6.50;67.90;;;;;;5107199;28;20221;-85
2021/04/26 00:40:05;;;;;;;16.07;3.30;;;6.60;67.70;;;;;;5100920;28;20199;-85
2021/04/26 00:42:31;;;;;;;15.30;3.22;;;6.50;67.60;;;;;;5101901;28;20194;-85
2021/04/26 00:44:57;;;;;;;5.45;2.78;;;6.40;67.60;;;;;;5095684;28;20239;-85
2021/04/26 00:47:23;;;;;;;6.17;3.03;;;6.40;67.70;;;;;;5095740;28;20203;-85
2021/04/26 00:49:48;;;;;;;8.33;2.77;;;6.40;67.80;;;;;;5095520;28;20996;-85
2021/04/26 00:52:15;;;;;;;2.73;2.47;;;6.30;68.00;;;;;;5094479;28;20196;-85
2021/04/26 00:54:41;;;;;;;13.77;4.18;;;6.30;67.90;;;;;;5094909;28;20275;-85
2021/04/26 00:57:07;;;;;;;9.73;2.78;;;6.20;68.20;;;;;;5101273;28;20180;-85
2021/04/26 00:59:34;;;;;;;7.17;2.00;;;6.20;68.20;;;;;;5107009;28;20556;-85
2021/04/26 01:02:00;;;;;;;7.93;3.00;;;6.20;68.20;;;;;;5103751;28;20195;-85
2021/04/26 01:04:26;;;;;;;11.85;3.83;;;6.30;68.30;;;;;;5108472;28;20186;-85
2021/04/26 01:06:52;;;;;;;6.95;3.03;;;6.10;69.20;;;;;;5118750;28;20202;-85
2021/04/26 01:09:18;;;;;;;5.83;2.60;;;6.10;68.60;;;;;;5119546;28;20178;-85
2021/04/26 01:12:02;;;;;;;4.57;2.53;;;6.10;68.60;;;;;;5114436;28;20245;-85
2021/04/26 01:14:35;;;;;;;16.40;2.70;;;6.20;68.60;;;;;;5098396;28;20167;-86
2021/04/26 01:17:07;;;;;;;6.55;3.55;;;6.00;68.70;;;;;;5097209;28;20196;-86
2021/04/26 01:20:04;;;;;;;10.20;3.17;;;6.00;68.80;;;;;;5095562;28;20253;-86
2021/04/26 01:22:59;;;;;;;6.38;2.38;;;6.10;69.00;;;;;;5095840;28;20191;-85
2021/04/26 01:25:27;;;;;;;5.90;2.80;;;6.10;68.80;;;;;;5097556;28;20203;-85
2021/04/26 01:28:30;;;;;;;4.38;3.35;;;6.20;68.80;;;;;;5099044;28;20541;-84
2021/04/26 01:31:16;;;;;;;17.42;3.50;;;6.10;68.70;;;;;;5097091;28;20176;-85
2021/04/26 01:33:54;;;;;;;4.65;3.08;;;6.10;68.70;;;;;;5101210;28;20199;-84
2021/04/26 01:36:25;;;;;;;7.90;2.33;;;6.10;68.60;;;;;;5103769;28;20225;-85
2021/04/26 01:38:53;;;;;;;5.80;3.10;;;6.10;68.50;;;;;;5110931;28;20218;-85
2021/04/26 01:41:22;;;;;;;8.93;3.20;;;6.00;68.60;;;;;;5100889;28;20251;-85
2021/04/26 01:43:49;;;;;;;11.50;3.20;;;6.00;68.90;;;;;;5100703;28;20190;-85
2021/04/26 01:46:16;;;;;;;5.63;2.80;;;6.00;68.90;;;;;;5099762;28;20176;-85
2021/04/26 01:48:44;;;;;;;9.80;3.28;;;6.00;68.70;;;;;;5097508;28;20187;-85
2021/04/26 01:51:11;;;;;;;10.52;2.70;;;6.00;69.40;;;;;;5098102;28;20257;-86
2021/04/26 01:53:39;;;;;;;3.72;2.60;;;6.00;68.60;;;;;;5097750;28;20211;-85
2021/04/26 01:56:08;;;;;;;10.93;4.75;;;6.00;68.40;;;;;;5102489;28;20195;-86
2021/04/26 01:58:37;;;;;;;10.30;2.67;;;6.00;68.40;;;;;;5099747;28;20712;-86
2021/04/26 02:01:03;;;;;;;7.80;2.90;;;5.90;68.50;;;;;;5106895;28;20168;-85
2021/04/26 02:03:29;;;;;;;5.60;2.80;;;6.00;68.50;;;;;;5100162;28;20234;-85
2021/04/26 02:05:56;;;;;;;4.43;2.80;;;5.80;68.70;;;;;;5099740;28;20172;-85
2021/04/26 02:08:24;;;;;;;7.97;3.05;;;5.90;68.90;;;;;;5098827;28;20617;-85
2021/04/26 02:10:50;;;;;;;7.45;3.00;;;5.80;68.80;;;;;;5099208;28;20171;-85
2021/04/26 02:13:21;;;;;;;8.23;3.00;;;5.90;68.90;;;;;;5101123;28;20506;-85
2021/04/26 02:15:50;;;;;;;12.27;3.72;;;5.90;68.90;;;;;;5098873;28;20195;-85
2021/04/26 02:18:16;;;;;;;7.55;3.00;;;5.80;68.70;;;;;;5098450;28;20234;-85
2021/04/26 02:20:42;;;;;;;7.60;2.63;;;5.70;69.00;;;;;;5096423;28;20200;-85
2021/04/26 02:23:10;;;;;;;7.07;2.92;;;5.60;69.20;;;;;;5099065;28;20820;-85
2021/04/26 02:25:36;;;;;;;19.98;3.35;;;5.70;69.40;;;;;;5107258;28;20237;-86
2021/04/26 02:28:02;;;;;;;7.43;3.70;;;5.60;69.40;;;;;;5100116;28;20201;-86
2021/04/26 02:30:28;;;;;;;6.15;2.53;;;5.70;69.40;;;;;;5096723;28;20422;-84
2021/04/26 02:33:20;;;;;;;6.97;3.33;;;5.70;69.30;;;;;;5099492;28;20274;-84
2021/04/26 02:35:50;;;;;;;7.28;3.03;;;5.70;69.30;;;;;;5096883;28;20477;-83
2021/04/26 02:38:28;;;;;;;10.27;3.35;;;5.70;69.20;;;;;;5097581;28;20233;-84
2021/04/26 02:41:03;;;;;;;8.07;3.15;;;5.60;69.00;;;;;;5096069;28;20203;-84
2021/04/26 02:43:31;;;;;;;5.05;2.38;;;5.70;69.10;;;;;;5096340;28;20199;-84
2021/04/26 02:45:59;;;;;;;4.72;3.00;;;5.60;69.70;;;;;;5097673;28;20611;-86
2021/04/26 02:48:25;;;;;;;5.80;3.50;;;5.50;69.40;;;;;;5098713;28;20180;-83
2021/04/26 02:50:53;;;;;;;6.30;2.83;;;5.40;69.50;;;;;;5099310;28;20179;-83
2021/04/26 02:53:24;;;;;;;10.43;3.40;;;5.50;69.70;;;;;;5098061;28;20195;-84
2021/04/26 02:55:52;;;;;;;11.07;3.08;;;5.40;69.90;;;;;;5097696;28;20191;-83
2021/04/26 02:58:23;;;;;;;12.15;3.50;;;5.40;70.00;;;;;;5099050;28;20182;-83
2021/04/26 03:00:50;;;;;;;10.85;3.28;;;5.40;70.00;;;;;;5106191;28;20215;-84
2021/04/26 03:03:16;;;;;;;4.00;3.60;;;5.30;70.10;;;;;;5101583;28;20680;-85
2021/04/26 03:05:43;;;;;;;9.45;4.00;;;5.40;70.00;;;;;;5080993;28;20202;-84
2021/04/26 03:08:10;;;;;;;9.63;3.70;;;5.40;69.90;;;;;;5079864;28;20199;-85
2021/04/26 03:10:36;;;;;;;9.68;3.53;;;5.30;70.10;;;;;;5083752;28;20177;-85
2021/04/26 03:13:03;;;;;;;8.57;4.03;;;5.30;70.10;;;;;;5089078;28;20188;-85
2021/04/26 03:15:30;;;;;;;12.35;3.90;;;5.30;70.20;;;;;;5074694;28;20192;-85
2021/04/26 03:17:56;;;;;;;9.38;3.63;;;5.40;70.10;;;;;;5072816;28;20165;-84
2021/04/26 03:20:24;;;;;;;9.32;4.82;;;5.40;69.90;;;;;;5075148;28;20273;-84
2021/04/26 03:22:51;;;;;;;11.38;4.20;;;5.30;70.10;;;;;;5079426;28;20716;-84
2021/04/26 03:25:22;;;;;;;15.75;4.05;;;5.30;70.00;;;;;;5081179;28;20202;-85
2021/04/26 03:27:51;;;;;;;8.45;3.67;;;5.30;70.10;;;;;;5079499;28;20201;-84
2021/04/26 03:30:20;;;;;;;8.43;3.63;;;5.20;70.20;;;;;;5080454;28;20180;-84
2021/04/26 03:32:48;;;;;;;8.65;3.72;;;5.20;70.30;;;;;;5082734;28;20193;-84
2021/04/26 03:35:17;;;;;;;8.00;3.92;;;5.30;70.10;;;;;;5082986;28;20189;-84
2021/04/26 03:37:47;;;;;;;7.95;3.80;;;5.30;69.80;;;;;;5081981;28;20516;-84
2021/04/26 03:40:16;;;;;;;14.20;3.70;;;5.30;69.90;;;;;;5084901;28;20196;-85
2021/04/26 03:42:43;;;;;;;6.18;2.92;;;5.10;70.00;;;;;;5090551;28;20193;-84
2021/04/26 03:45:09;;;;;;;5.95;2.83;;;5.10;70.20;;;;;;5097733;28;20232;-84
2021/04/26 03:47:35;;;;;;;10.57;3.50;;;5.10;70.10;;;;;;5092516;28;20195;-84
2021/04/26 03:50:00;;;;;;;9.93;3.60;;;5.10;70.20;;;;;;5087368;28;20188;-84
2021/04/26 03:52:26;;;;;;;7.50;3.37;;;5.00;70.20;;;;;;5087143;28;20267;-85
2021/04/26 03:54:52;;;;;;;9.17;3.90;;;4.80;70.60;;;;;;5087610;28;20193;-85
2021/04/26 03:57:17;;;;;;;8.20;3.23;;;4.80;70.90;;;;;;5079889;28;20193;-85
2021/04/26 03:59:43;;;;;;;6.00;3.37;;;4.70;71.10;;;;;;5085034;28;20196;-85
2021/04/26 04:02:09;;;;;;;6.07;3.53;;;4.80;71.10;;;;;;5084231;28;20196;-85
2021/04/26 04:04:35;;;;;;;7.80;3.00;;;4.80;70.90;;;;;;5091336;28;20687;-84
2021/04/26 04:07:01;;;;;;;6.25;4.25;;;5.00;70.70;;;;;;5100677;28;20258;-84
2021/04/26 04:09:26;;;;;;;16.43;4.60;;;5.00;70.60;;;;;;5102140;28;20301;-85
2021/04/26 04:11:52;;;;;;;7.57;3.87;;;4.90;70.50;;;;;;5099121;28;20219;-85
2021/04/26 04:14:17;;;;;;;11.73;3.90;;;4.90;70.50;;;;;;5099771;28;20215;-84
2021/04/26 04:16:43;;;;;;;8.23;4.13;;;5.00;70.40;;;;;;5098668;28;20219;-84
2021/04/26 04:19:09;;;;;;;11.47;5.27;;;5.00;70.20;;;;;;5098216;28;20231;-84
2021/04/26 04:21:34;;;;;;;10.57;4.67;;;4.90;70.20;;;;;;5099381;28;20180;-84
2021/04/26 04:24:00;;;;;;;10.53;3.87;;;4.90;70.30;;;;;;5100953;28;20183;-84
2021/04/26 04:26:27;;;;;;;12.63;4.73;;;5.00;70.20;;;;;;5102258;28;20172;-85
2021/04/26 04:28:54;;;;;;;12.45;4.40;;;5.00;70.10;;;;;;5101210;28;20563;-86
2021/04/26 04:31:20;;;;;;;12.23;5.57;;;5.00;70.00;;;;;;5097252;28;20207;-85
2021/04/26 04:33:46;;;;;;;18.27;4.97;;;5.00;69.90;;;;;;5099552;28;20192;-85
2021/04/26 04:36:11;;;;;;;11.57;4.83;;;5.00;69.90;;;;;;5099558;28;20194;-84
2021/04/26 04:38:37;;;;;;;18.00;5.57;;;4.90;70.00;;;;;;5107532;28;20184;-84
2021/04/26 04:41:03;;;;;;;15.03;4.60;;;4.90;70.10;;;;;;5109293;28;20218;-83
2021/04/26 04:43:29;;;;;;;12.45;4.65;;;4.90;70.90;;;;;;5110322;28;20430;-83
2021/04/26 04:45:54;;;;;;;15.07;4.87;;;5.00;69.90;;;;;;5107370;28;20263;-83
2021/04/26 04:48:20;;;;;;;14.00;5.43;;;5.00;69.70;;;;;;5105698;28;20204;-83
2021/04/26 04:50:46;;;;;;;15.47;4.80;;;5.00;70.30;;;;;;5105167;28;20231;-83
2021/04/26 04:53:12;;;;;;;13.00;4.90;;;4.90;69.90;;;;;;5105423;28;20196;-83
2021/04/26 04:55:37;;;;;;;11.53;4.90;;;4.90;69.80;;;;;;5103618;28;20190;-83
2021/04/26 04:58:03;;;;;;;14.53;4.60;;;5.00;69.70;;;;;;5103874;28;20178;-84
2021/04/26 05:00:29;;;;;;;8.80;4.67;;;4.90;69.60;;;;;;5113115;28;20465;-84
2021/04/26 05:02:54;;;;;;;10.10;4.30;;;5.00;69.50;;;;;;5104528;28;20315;-85
2021/04/26 05:05:20;;;;;;;9.43;3.77;;;5.20;69.20;;;;;;5110120;28;20272;-85
2021/04/26 05:07:46;;;;;;;19.50;5.07;;;5.00;69.00;;;;;;5104282;28;20184;-83
2021/04/26 05:10:12;;;;;;;8.80;5.13;;;5.00;69.00;;;;;;5107718;28;20422;-83
2021/04/26 05:12:38;;;;;;;9.60;4.20;;;5.10;69.00;;;;;;5119590;28;20554;-83
2021/04/26 05:15:04;;;;;;;15.02;4.15;;;5.10;68.80;;;;;;5127000;28;20187;-83
2021/04/26 05:17:32;;;;;;;8.18;3.35;;;5.20;68.60;;;;;;5131918;28;20201;-83
2021/04/26 05:19:58;;;;;;;14.30;3.83;;;5.30;68.30;;;;;;5126252;28;20613;-82
2021/04/26 05:22:24;;;;;;;7.30;4.00;;;5.20;68.20;;;;;;5124913;28;20323;-81
2021/04/26 05:24:50;;;;;;;5.97;3.67;;;5.30;68.10;;;;;;5125068;28;20194;-82
2021/04/26 05:27:15;;;;;;;4.83;3.37;;;5.40;67.90;;;;;;5125990;28;20758;-82
2021/04/26 05:29:41;;;;;;;4.30;3.33;;;5.80;67.30;;;;;;5124181;28;20491;-81
2021/04/26 05:32:07;;;;;;;12.67;3.40;;;6.40;65.80;;;;;;5125119;28;20444;-82
2021/04/26 05:34:32;;;;;;;4.27;3.30;;;7.10;63.70;;;;;;5125179;28;20189;-81
2021/04/26 05:36:58;;;;;;;7.73;2.90;;;8.10;61.10;;;;;;5125012;28;20182;-81
2021/04/26 05:39:24;;;;;;;10.27;2.80;;;8.90;57.90;;;;;;5124518;28;20213;-81
2021/04/26 05:41:50;;;;;;;3.60;2.83;;;9.40;55.50;;;;;;5124985;27;20340;-82
2021/04/26 05:44:16;;;;;;;4.53;2.10;;;10.00;53.20;;;;;;5121315;28;20171;-80
2021/04/26 05:46:41;;;;;;;7.63;2.90;;;10.90;50.90;;;;;;5116805;28;20186;-80
2021/04/26 05:49:07;;;;;;;3.63;2.30;;;11.30;48.70;;;;;;5118573;28;20203;-80
2021/04/26 05:51:33;;;;;;;8.83;2.80;;;11.40;47.40;;;;;;5117900;28;20171;-80
2021/04/26 05:53:59;;;;;;;9.60;3.70;;;11.60;46.60;;;;;;5117749;28;20656;-79
2021/04/26 05:56:25;;;;;;;8.40;3.00;;;11.60;45.20;;;;;;5117283;28;20416;-79
2021/04/26 05:58:51;;;;;;;13.83;3.00;;;12.10;45.30;;;;;;5121849;28;20511;-79
2021/04/26 06:01:17;;;;;;;12.90;3.95;;;12.90;43.30;;;;;;5123339;28;20896;-80
2021/04/26 06:03:43;;;;;;;4.97;2.60;;;12.90;42.10;;;;;;5115125;28;20207;-79
2021/04/26 06:06:09;;;;;;;11.80;3.40;;;13.50;41.60;;;;;;5097039;28;20152;-79
2021/04/26 06:08:35;;;;;;;6.40;2.90;;;13.80;39.80;;;;;;5097874;28;20176;-79
2021/04/26 06:11:01;;;;;;;2.67;2.00;;;14.90;38.60;;;;;;5098261;28;20421;-79
2021/04/26 06:13:27;;;;;;;10.20;2.80;;;14.70;37.10;;;;;;5114722;28;20473;-79
2021/04/26 06:15:52;;;;;;;6.40;3.57;;;13.80;37.70;;;;;;5116430;28;20247;-79
2021/04/26 06:18:21;;;;;;;4.00;3.20;;;14.00;38.20;;;;;;5117244;28;20444;-79
2021/04/26 06:20:48;;;;;;;4.57;3.22;;;14.70;37.50;;;;;;5117743;27;20476;-79
2021/04/26 06:23:15;;;;;;;7.28;3.40;;;15.90;35.50;;;;;;5118607;28;20233;-80
2021/04/26 06:25:42;;;;;;;3.42;2.65;;;15.80;34.60;;;;;;5118276;28;20542;-79
2021/04/26 06:28:09;;;;;;;10.55;3.50;;;15.40;34.60;;;;;;5118713;28;20197;-79
2021/04/26 06:30:37;;;;;;;8.70;3.40;;;16.70;34.20;;;;;;5119340;28;20182;-80
2021/04/26 06:33:03;;;;;;;7.00;3.30;;;18.00;31.70;;;;;;5117517;28;20202;-81
2021/04/26 06:35:30;;;;;;;8.02;3.35;;;18.20;30.40;;;;;;5118296;28;20171;-80
2021/04/26 06:37:56;;;;;;;6.45;3.13;;;19.10;30.00;;;;;;5109228;28;20639;-82
2021/04/26 06:40:22;;;;;;;10.80;2.93;;;18.80;30.00;;;;;;5096489;28;20244;-81
2021/04/26 06:42:48;;;;;;;8.77;3.00;;;18.00;30.00;;;;;;5098786;28;20194;-81
2021/04/26 06:45:21;;;;;;;11.27;3.60;;;17.30;30.00;;;;;;5097586;28;20421;-81
2021/04/26 06:47:48;;;;;;;5.68;3.45;;;16.80;31.20;;;;;;5096310;28;20540;-81
2021/04/26 06:50:14;;;;;;;6.55;3.35;;;17.60;30.40;;;;;;5098489;28;20167;-82
2021/04/26 06:52:40;;;;;;;5.93;3.47;;;18.50;30.00;;;;;;5095278;28;20221;-81
2021/04/26 06:55:06;;;;;;;10.70;3.83;;;18.50;30.00;;;;;;5095256;28;20431;-81
2021/04/26 06:57:32;;;;;;;7.60;3.03;;;18.40;30.00;;;;;;5095950;28;20417;-81
2021/04/26 06:59:57;;;;;;;7.27;3.00;;;18.50;30.00;;;;;;5097692;28;20610;-81
2021/04/26 07:02:23;;;;;;;5.70;3.40;;;18.60;30.00;;;;;;5102693;28;21007;-83
2021/04/26 07:04:49;;;;;;;7.60;3.17;;;18.10;30.00;;;;;;5093643;28;20183;-82
2021/04/26 07:07:15;;;;;;;12.20;3.77;;;17.00;30.00;;;;;;5088441;28;20451;-82
2021/04/26 07:09:41;;;;;;;9.50;3.43;;;16.10;32.10;;;;;;5097675;28;20549;-81
2021/04/26 07:12:07;;;;;;;9.90;3.57;;;15.70;33.30;;;;;;5102219;28;20460;-81
2021/04/26 07:14:32;;;;;;;5.15;3.80;;;14.60;34.80;;;;;;5116915;28;20240;-81
2021/04/26 07:16:58;;;;;;;6.00;3.93;;;13.40;37.50;;;;;;5118153;28;20199;-81
2021/04/26 07:19:24;;;;;;;5.43;3.47;;;12.10;40.20;;;;;;5117267;28;20202;-80
2021/04/26 07:21:50;;;;;;;9.23;4.17;;;11.50;42.60;;;;;;5117476;28;20195;-82
2021/04/26 07:24:16;;;;;;;7.97;4.22;;;11.20;44.20;;;;;;5118658;28;20431;-81
2021/04/26 07:26:42;;;;;;;10.95;3.70;;;11.10;45.50;;;;;;5118342;28;20596;-81
2021/04/26 07:29:08;;;;;;;7.77;3.40;;;10.70;46.30;;;;;;5120939;28;20183;-81
2021/04/26 07:31:33;;;;;;;6.10;3.40;;;9.90;48.00;;;;;;5118524;28;20178;-82
2021/04/26 07:33:59;;;;;;;9.87;4.00;;;9.30;50.20;;;;;;5121717;28;20442;-81
2021/04/26 07:36:25;;;;;;;10.03;3.97;;;9.30;51.20;;;;;;5120400;28;20481;-86
2021/04/26 07:38:51;;;;;;;7.23;3.33;;;9.10;51.90;;;;;;5118722;28;20183;-86
2021/04/26 07:41:17;;;;;;;6.60;3.60;;;8.90;53.00;;;;;;5107736;28;20409;-85
2021/04/26 07:43:42;;;;;;;7.13;3.80;;;8.90;53.40;;;;;;5098153;28;20200;-85
2021/04/26 07:46:08;;;;;;;8.10;3.87;;;9.10;53.20;;;;;;5099710;28;20502;-86
2021/04/26 07:48:36;;;;;;;4.60;3.97;;;9.30;53.00;;;;;;5094486;28;20172;-85
2021/04/26 07:51:02;;;;;;;8.95;4.05;;;9.60;52.50;;;;;;5093734;28;20677;-86
2021/04/26 07:53:28;;;;;;;6.77;3.70;;;9.40;52.40;;;;;;5099069;28;20211;-84
2021/04/26 07:55:54;;;;;;;5.95;3.83;;;9.20;52.50;;;;;;5096084;28;20202;-85
2021/04/26 07:58:20;;;;;;;12.07;4.20;;;9.00;52.90;;;;;;5097314;28;20179;-85
2021/04/26 08:00:46;;;;;;;11.27;4.50;;;9.00;53.00;;;;;;5096815;28;20207;-84
2021/04/26 08:03:15;;;;;;;10.93;3.53;;;9.10;53.40;;;;;;5097450;28;20215;-85
2021/04/26 08:05:40;;;;;;;10.73;4.65;;;9.10;53.50;;;;;;5098983;28;20168;-84
2021/04/26 08:08:06;;;;;;;7.00;4.53;;;9.20;53.10;;;;;;5099649;28;20310;-85
2021/04/26 08:10:32;;;;;;;11.03;4.50;;;9.30;52.90;;;;;;5099331;28;20183;-84
2021/04/26 08:12:57;;;;;;;12.13;4.47;;;9.70;52.20;;;;;;5114015;28;20199;-84
2021/04/26 08:15:23;;;;;;;8.03;4.33;;;9.80;51.90;;;;;;5122635;28;20179;-85
2021/04/26 08:17:49;;;;;;;8.73;4.23;;;9.80;51.10;;;;;;5124719;28;20175;-84
2021/04/26 08:20:15;;;;;;;15.90;6.13;;;9.90;50.70;;;;;;5121871;28;20199;-84
2021/04/26 08:22:41;;;;;;;9.73;4.45;;;10.10;50.60;;;;;;5123181;28;20424;-84
2021/04/26 08:25:07;;;;;;;7.33;4.13;;;10.10;50.50;;;;;;5124845;28;20179;-84
2021/04/26 08:27:34;;;;;;;5.88;4.88;;;10.20;50.50;;;;;;5123146;28;20221;-86
2021/04/26 08:30:02;;;;;;;9.82;5.00;;;10.20;50.20;;;;;;5121794;28;20175;-85
2021/04/26 08:32:28;;;;;;;6.50;3.55;;;10.10;50.30;;;;;;5121783;28;20577;-84
2021/04/26 08:34:54;;;;;;;4.90;4.10;;;10.10;49.70;;;;;;5128277;28;20295;-85
2021/04/26 08:37:19;;;;;;;5.73;3.50;;;10.20;49.40;;;;;;5138853;28;20167;-85
2021/04/26 08:39:45;;;;;;;8.27;3.33;;;10.30;49.40;;;;;;5138672;28;20203;-85
2021/04/26 08:42:15;;;;;;;9.77;4.07;;;10.50;49.00;;;;;;5119829;28;20517;-84
2021/04/26 08:44:41;;;;;;;10.57;3.80;;;10.50;49.10;;;;;;5120410;28;20188;-85
2021/04/26 08:47:08;;;;;;;10.02;3.42;;;10.60;48.10;;;;;;5120091;28;20172;-86
2021/04/26 08:49:34;;;;;;;8.85;3.60;;;10.80;47.30;;;;;;5120112;28;20195;-86
2021/04/26 08:52:00;;;;;;;6.73;3.10;;;10.90;46.40;;;;;;5119238;28;20217;-86
2021/04/26 08:54:26;;;;;;;7.10;3.63;;;11.00;45.40;;;;;;5118097;28;20159;-86
2021/04/26 08:56:52;;;;;;;6.47;3.90;;;11.00;45.70;;;;;;5119851;28;20276;-86
2021/04/26 08:59:18;;;;;;;15.20;4.07;;;11.00;45.50;;;;;;5116061;28;20212;-86
2021/04/26 09:01:47;;;;;;;10.73;2.83;;;10.80;46.10;;;;;;5117834;28;20215;-85
2021/04/26 09:04:13;;;;;;;6.18;3.45;;;10.80;45.10;;;;;;5120009;28;20156;-83
2021/04/26 09:06:58;;;;;;;4.47;3.00;;;11.00;44.70;;;;;;5118865;28;20235;-85
2021/04/26 09:09:41;;;;;;;6.10;3.25;;;11.00;43.50;;;;;;5118751;28;20414;-83
2021/04/26 09:12:13;;;;;;;7.22;3.22;;;11.10;44.30;;;;;;5125820;28;20191;-82
2021/04/26 09:14:47;;;;;;;4.55;2.78;;;11.10;44.50;;;;;;5138422;28;20179;-84
2021/04/26 09:17:31;;;;;;;4.43;3.22;;;11.20;43.90;;;;;;5139364;28;20206;-84
2021/04/26 09:20:21;;;;;;;9.13;3.65;;;11.20;43.40;;;;;;5120232;28;20191;-82
2021/04/26 09:23:01;;;;;;;7.90;4.88;;;11.30;41.60;;;;;;5119089;28;20258;-84
2021/04/26 09:25:42;;;;;;;15.05;3.78;;;11.40;40.80;;;;;;5114014;28;20180;-84
2021/04/26 09:28:19;;;;;;;5.35;3.28;;;11.30;39.20;;;;;;5104742;28;20157;-85
2021/04/26 09:30:58;;;;;;;4.88;3.58;;;11.50;39.00;;;;;;5096011;28;20178;-86
2021/04/26 09:33:34;;;;;;;5.13;3.05;;;11.70;39.40;;;;;;5104523;28;20203;-86
2021/04/26 09:36:21;;;;;;;6.38;3.28;;;11.60;38.30;;;;;;5104175;28;20156;-87
2021/04/26 09:38:50;;;;;;;6.07;4.30;;;11.70;37.80;;;;;;5099644;28;20176;-87
2021/04/26 09:41:33;;;;;;;11.10;3.97;;;11.80;38.40;;;;;;5097131;28;20183;-85
2021/04/26 09:44:01;;;;;;;6.50;3.55;;;11.70;38.80;;;;;;5098726;28;20176;-81
2021/04/26 09:46:37;;;;;;;7.95;3.15;;;11.70;39.60;;;;;;5103281;28;20619;-81
2021/04/26 09:49:15;;;;;;;8.52;3.70;;;11.90;40.10;;;;;;5106816;28;20228;-81
2021/04/26 09:51:43;;;;;;;4.57;3.70;;;11.90;39.60;;;;;;5101301;28;20626;-84
2021/04/26 09:54:09;;;;;;;11.85;4.53;;;11.90;39.60;;;;;;5097539;28;20184;-81
2021/04/26 09:56:43;;;;;;;5.40;3.50;;;12.00;39.20;;;;;;5098014;28;20241;-83
2021/04/26 09:59:10;;;;;;;6.03;4.15;;;12.10;39.80;;;;;;5099121;28;20267;-84
2021/04/26 10:01:37;;;;;;;6.88;4.57;;;12.10;39.30;;;;;;5105042;28;20187;-84
2021/04/26 10:04:05;;;;;;;5.63;4.35;;;12.30;39.20;;;;;;5100560;28;20292;-83
2021/04/26 10:06:31;;;;;;;6.18;4.60;;;12.30;39.30;;;;;;5100151;28;20262;-83
2021/04/26 10:09:03;;;;;;;7.75;5.05;;;12.40;38.50;;;;;;5098962;28;20168;-84
2021/04/26 10:11:31;;;;;;;5.35;4.20;;;12.30;38.20;;;;;;5100081;28;20175;-85
2021/04/26 10:14:04;;;;;;;7.35;4.50;;;11.90;38.60;;;;;;5097565;28;20175;-85
2021/04/26 10:16:37;;;;;;;6.15;5.03;;;11.90;39.10;;;;;;5099133;28;20190;-85
2021/04/26 10:19:05;;;;;;;7.55;6.25;;;11.80;39.20;;;;;;5107152;28;20152;-85
2021/04/26 10:21:32;;;;;;;9.85;4.13;;;12.00;38.70;;;;;;5098186;28;20201;-86
2021/04/26 10:24:14;;;;;;;10.65;6.20;;;12.20;38.40;;;;;;5099127;28;20174;-85
2021/04/26 10:26:43;;;;;;;9.85;3.97;;;12.30;38.20;;;;;;5097711;28;20159;-85
2021/04/26 10:29:25;;;;;;;4.93;4.43;;;12.40;38.20;;;;;;5097209;28;20623;-85
2021/04/26 10:32:10;;;;;;;12.48;5.20;;;12.60;37.70;;;;;;5096137;28;20227;-85
2021/04/26 10:34:44;;;;;;;8.25;4.35;;;12.50;36.90;;;;;;5095576;28;20176;-85
2021/04/26 10:37:15;;;;;;;11.73;4.65;;;12.50;36.20;;;;;;5104342;28;20184;-84
2021/04/26 10:39:56;;;;;;;6.22;3.95;;;12.60;36.30;;;;;;5095092;28;20286;-85
2021/04/26 10:42:44;;;;;;;5.25;4.10;;;12.70;36.30;;;;;;5097277;28;20255;-85
2021/04/26 10:45:13;;;;;;;13.65;5.20;;;12.80;36.00;;;;;;5097329;28;20172;-85
2021/04/26 10:47:42;;;;;;;3.97;3.58;;;12.70;35.70;;;;;;5098038;28;20673;-85
2021/04/26 10:50:08;;;;;;;5.30;3.97;;;12.60;36.00;;;;;;5095391;28;20190;-85
2021/04/26 10:52:36;;;;;;;9.13;5.37;;;12.70;35.70;;;;;;5095125;28;20291;-85
2021/04/26 10:55:07;;;;;;;8.27;4.80;;;12.80;35.60;;;;;;5096910;28;20182;-85
2021/04/26 10:57:41;;;;;;;4.57;3.95;;;12.90;35.50;;;;;;5095853;28;20247;-85
2021/04/26 11:00:31;;;;;;;13.88;4.90;;;12.90;35.60;;;;;;5100949;28;20242;-85
2021/04/26 11:03:06;;;;;;;5.10;4.00;;;12.90;35.60;;;;;;5099721;28;20196;-84
2021/04/26 11:05:45;;;;;;;4.88;4.47;;;13.00;34.90;;;;;;5098845;28;20176;-85
2021/04/26 11:08:36;;;;;;;5.22;4.65;;;13.10;34.60;;;;;;5099008;28;20182;-84
2021/04/26 11:11:21;;;;;;;8.07;4.57;;;13.00;34.30;;;;;;5099068;28;20176;-84
2021/04/26 11:13:54;;;;;;;9.80;4.20;;;13.10;34.50;;;;;;5078051;28;20618;-83
2021/04/26 11:16:29;;;;;;;6.25;4.13;;;13.20;34.20;;;;;;5077895;28;20264;-85
2021/04/26 11:18:58;;;;;;;6.20;4.22;;;12.90;34.00;;;;;;5090369;28;20236;-84
2021/04/26 11:21:47;;;;;;;5.93;4.25;;;12.80;34.20;;;;;;5088246;28;20172;-84
2021/04/26 11:24:38;;;;;;;7.25;6.07;;;13.10;34.40;;;;;;5090414;28;20545;-86
2021/04/26 11:27:11;;;;;;;4.28;3.63;;;13.10;34.30;;;;;;5086590;28;20192;-85
2021/04/26 11:29:47;;;;;;;6.30;4.18;;;13.30;34.10;;;;;;5085764;28;20643;-86
2021/04/26 11:32:14;;;;;;;6.40;4.80;;;13.20;34.10;;;;;;5086162;28;20221;-86
2021/04/26 11:34:46;;;;;;;8.80;4.47;;;13.20;34.20;;;;;;5086288;28;20187;-86
2021/04/26 11:37:14;;;;;;;4.85;4.45;;;13.40;34.20;;;;;;5084215;28;20172;-85
2021/04/26 11:39:43;;;;;;;5.50;4.50;;;13.50;33.60;;;;;;5084598;28;20211;-86
2021/04/26 11:42:11;;;;;;;13.98;4.95;;;13.60;33.20;;;;;;5084504;28;20191;-86
2021/04/26 11:44:39;;;;;;;6.95;4.25;;;13.50;33.00;;;;;;5087807;28;20173;-86
2021/04/26 11:47:05;;;;;;;8.35;4.93;;;13.70;33.10;;;;;;5086062;28;20192;-86
2021/04/26 11:49:36;;;;;;;7.22;5.15;;;13.70;32.60;;;;;;5086914;28;20249;-87
2021/04/26 11:52:15;;;;;;;5.40;3.90;;;13.80;32.30;;;;;;5085837;28;20196;-85
2021/04/26 11:54:49;;;;;;;6.25;3.83;;;13.90;32.20;;;;;;5091760;28;20187;-87
2021/04/26 11:57:19;;;;;;;7.22;5.18;;;13.80;31.90;;;;;;5086015;28;20179;-86
2021/04/26 12:00:01;;;;;;;8.15;4.40;;;13.70;32.00;;;;;;5083528;28;20200;-87
2021/04/26 12:02:29;;;;;;;4.30;3.92;;;13.60;32.20;;;;;;5094889;28;20256;-87
2021/04/26 12:04:59;;;;;;;6.78;4.07;;;13.60;31.90;;;;;;5088147;28;20176;-87
2021/04/26 12:07:25;;;;;;;4.95;4.55;;;13.70;31.90;;;;;;5088088;28;20174;-87
2021/04/26 12:09:58;;;;;;;5.45;4.22;;;13.70;31.90;;;;;;5086984;28;20172;-88
2021/04/26 12:12:26;;;;;;;6.70;4.78;;;13.80;31.70;;;;;;5086534;28;20199;-88
2021/04/26 12:15:15;;;;;;;11.10;5.03;;;13.80;31.20;;;;;;5085049;28;20173;-88
2021/04/26 12:17:45;;;;;;;10.75;4.63;;;13.80;31.20;;;;;;5087300;28;20245;-87
2021/04/26 12:20:15;;;;;;;7.63;4.35;;;13.90;30.90;;;;;;5083473;28;20253;-87
2021/04/26 12:22:41;;;;;;;4.78;4.28;;;14.00;30.70;;;;;;5083082;28;20564;-87
2021/04/26 12:25:08;;;;;;;4.60;4.20;;;14.00;30.50;;;;;;5083242;28;20258;-87
2021/04/26 12:27:35;;;;;;;7.65;4.30;;;14.00;30.90;;;;;;5084033;28;20545;-88
2021/04/26 12:30:14;;;;;;;5.82;4.45;;;14.10;30.90;;;;;;5085364;28;20184;-84
2021/04/26 12:32:40;;;;;;;6.00;4.93;;;13.90;31.20;;;;;;5094708;28;20687;-84
2021/04/26 12:35:12;;;;;;;7.30;4.97;;;13.80;31.60;;;;;;5101100;28;20274;-87
2021/04/26 12:37:45;;;;;;;6.40;4.00;;;14.00;31.80;;;;;;5092519;28;20180;-86
2021/04/26 12:40:29;;;;;;;9.55;5.18;;;14.10;31.70;;;;;;5094002;28;20235;-88
2021/04/26 12:42:58;;;;;;;6.07;4.53;;;14.20;31.10;;;;;;5091587;28;20215;-87
2021/04/26 12:45:45;;;;;;;8.73;4.93;;;14.20;30.80;;;;;;5106801;28;20188;-85
2021/04/26 12:48:14;;;;;;;6.10;4.63;;;14.30;30.70;;;;;;5103800;28;20168;-83
2021/04/26 12:50:44;;;;;;;8.40;5.25;;;14.30;30.10;;;;;;5093662;28;20218;-83
2021/04/26 12:53:13;;;;;;;12.98;5.75;;;14.10;30.20;;;;;;5087715;28;20204;-85
2021/04/26 12:55:44;;;;;;;7.15;4.88;;;14.30;30.50;;;;;;5088315;28;20188;-82
2021/04/26 12:58:12;;;;;;;5.35;4.70;;;14.30;30.50;;;;;;5087513;28;20179;-83
2021/04/26 13:00:49;;;;;;;11.13;5.80;;;14.30;30.60;;;;;;5087289;28;20694;-82